createdAt,value
2022-09-30T00:00:39.640Z,6.81
2022-09-30T00:03:06.079Z,6.77
2022-09-30T00:05:32.484Z,6.63
2022-09-30T00:07:59.110Z,6.71
2022-09-30T00:10:25.508Z,6.79
2022-09-30T00:12:52.718Z,6.89
2022-09-30T00:15:20.166Z,6.92
2022-09-30T00:17:46.609Z,6.86
2022-09-30T00:20:13.078Z,6.90
2022-09-30T00:22:39.891Z,6.95
2022-09-30T00:25:07.112Z,6.96
2022-09-30T00:27:33.486Z,6.93
2022-09-30T00:29:59.834Z,6.91
2022-09-30T00:32:26.314Z,6.97
2022-09-30T00:34:52.714Z,7.09
2022-09-30T00:37:19.226Z,7.09
2022-09-30T00:39:45.653Z,7.00
2022-09-30T00:42:14.438Z,7.01
2022-09-30T00:44:51.825Z,6.99
2022-09-30T00:47:33.513Z,7.10
2022-09-30T00:50:22.161Z,7.11
2022-09-30T00:52:58.393Z,6.95
2022-09-30T00:55:33.734Z,7.11
2022-09-30T00:58:02.917Z,7.23
2022-09-30T01:00:29.710Z,7.08
2022-09-30T01:02:56.270Z,7.03
2022-09-30T01:05:26.432Z,6.97
2022-09-30T01:07:56.395Z,6.95
2022-09-30T01:10:22.766Z,6.93
2022-09-30T01:12:49.245Z,7.10
2022-09-30T01:15:15.840Z,7.06
2022-09-30T01:18:06.044Z,7.07
2022-09-30T01:21:03.416Z,7.09
2022-09-30T01:23:56.632Z,7.01
2022-09-30T01:26:41.948Z,6.98
2022-09-30T01:32:32.017Z,7.00
2022-09-30T01:35:10.642Z,7.12
2022-09-30T01:37:49.261Z,7.06
2022-09-30T01:40:26.160Z,7.10
2022-09-30T01:43:11.648Z,7.12
2022-09-30T01:46:00.071Z,6.93
2022-09-30T01:48:54.346Z,6.97
2022-09-30T01:51:30.857Z,6.82
2022-09-30T01:54:04.181Z,6.89
2022-09-30T01:56:42.782Z,6.85
2022-09-30T01:59:27.601Z,6.94
2022-09-30T02:02:19.521Z,6.81
2022-09-30T02:04:55.461Z,6.91
2022-09-30T02:07:30.704Z,6.94
2022-09-30T02:10:05.660Z,6.87
2022-09-30T02:12:35.700Z,6.96
2022-09-30T02:15:09.286Z,6.88
2022-09-30T02:17:45.172Z,6.88
2022-09-30T02:20:53.435Z,6.85
2022-09-30T02:23:26.534Z,6.81
2022-09-30T02:26:05.887Z,6.58
2022-09-30T02:28:32.840Z,6.71
2022-09-30T02:31:02.317Z,6.79
2022-09-30T02:33:35.207Z,6.74
2022-09-30T02:36:34.583Z,6.79
2022-09-30T02:39:06.375Z,6.70
2022-09-30T02:41:44.092Z,6.72
2022-09-30T02:44:10.817Z,6.55
2022-09-30T02:46:54.903Z,6.53
2022-09-30T02:49:38.954Z,6.58
2022-09-30T02:52:24.580Z,6.59
2022-09-30T02:55:15.887Z,6.52
2022-09-30T02:57:53.388Z,6.45
2022-09-30T03:00:19.754Z,6.61
2022-09-30T03:02:46.379Z,6.64
2022-09-30T03:05:12.862Z,6.68
2022-09-30T03:07:40.375Z,6.69
2022-09-30T03:10:17.977Z,6.58
2022-09-30T03:13:15.973Z,6.61
2022-09-30T03:15:45.014Z,6.33
2022-09-30T03:18:22.570Z,6.53
2022-09-30T03:21:07.034Z,6.59
2022-09-30T03:23:42.624Z,6.36
2022-09-30T03:26:25.828Z,6.48
2022-09-30T03:29:27.624Z,6.35
2022-09-30T03:32:18.697Z,6.23
2022-09-30T03:35:00.400Z,6.40
2022-09-30T03:37:33.852Z,6.31
2022-09-30T03:40:13.426Z,6.10
2022-09-30T03:42:45.703Z,6.16
2022-09-30T03:45:20.408Z,6.22
2022-09-30T03:47:52.024Z,6.19
2022-09-30T03:50:21.766Z,6.19
2022-09-30T03:52:49.661Z,6.15
2022-09-30T03:55:17.193Z,6.14
2022-09-30T03:57:44.629Z,6.00
2022-09-30T04:00:13.208Z,6.21
2022-09-30T04:02:39.604Z,6.19
2022-09-30T04:05:06.691Z,6.12
2022-09-30T04:07:33.313Z,6.07
2022-09-30T04:09:59.739Z,5.90
2022-09-30T04:12:26.479Z,5.80
2022-09-30T04:14:52.850Z,5.94
2022-09-30T04:17:19.301Z,6.15
2022-09-30T04:19:45.686Z,6.23
2022-09-30T04:22:12.071Z,6.20
2022-09-30T04:24:39.452Z,6.31
2022-09-30T04:27:05.901Z,6.36
2022-09-30T04:29:32.321Z,6.28
2022-09-30T04:31:58.808Z,6.05
2022-09-30T04:34:25.330Z,5.93
2022-09-30T04:36:51.742Z,5.93
2022-09-30T04:39:18.150Z,5.93
2022-09-30T04:41:44.572Z,5.66
2022-09-30T04:44:10.992Z,5.70
2022-09-30T04:46:37.381Z,5.72
2022-09-30T04:49:08.785Z,5.93
2022-09-30T04:51:36.420Z,5.54
2022-09-30T04:54:02.929Z,5.60
2022-09-30T04:56:29.375Z,5.95
2022-09-30T04:58:55.774Z,6.02
2022-09-30T05:01:22.330Z,6.05
2022-09-30T05:03:49.007Z,5.99
2022-09-30T05:06:15.554Z,6.00
2022-09-30T05:08:46.412Z,5.98
2022-09-30T05:11:19.609Z,6.02
2022-09-30T05:13:47.016Z,6.15
2022-09-30T05:16:14.515Z,6.06
2022-09-30T05:18:45.443Z,5.99
2022-09-30T05:21:14.422Z,6.14
2022-09-30T05:23:40.836Z,6.15
2022-09-30T05:26:11.925Z,5.94
2022-09-30T05:28:39.500Z,5.93
2022-09-30T05:31:06.580Z,6.12
2022-09-30T05:33:34.026Z,5.82
2022-09-30T05:36:05.720Z,6.04
2022-09-30T05:38:32.835Z,6.06
2022-09-30T05:41:06.389Z,6.00
2022-09-30T05:43:32.957Z,5.96
2022-09-30T05:45:59.368Z,6.08
2022-09-30T05:48:27.848Z,6.07
2022-09-30T05:50:58.380Z,6.08
2022-09-30T05:53:25.129Z,5.92
2022-09-30T05:55:52.209Z,5.75
2022-09-30T05:58:19.558Z,5.62
2022-09-30T06:00:47.869Z,5.78
2022-09-30T06:03:14.895Z,5.82
2022-09-30T06:05:41.326Z,5.54
2022-09-30T06:08:07.952Z,5.59
2022-09-30T06:10:35.465Z,5.85
2022-09-30T06:13:04.861Z,5.66
2022-09-30T06:15:32.172Z,5.71
2022-09-30T06:17:58.644Z,5.73
2022-09-30T06:20:25.537Z,5.64
2022-09-30T06:22:51.970Z,5.76
2022-09-30T06:25:18.538Z,5.63
2022-09-30T06:27:46.928Z,5.66
2022-09-30T06:30:14.179Z,5.82
2022-09-30T06:32:40.833Z,5.85
2022-09-30T06:35:07.622Z,5.58
2022-09-30T06:37:36.753Z,5.70
2022-09-30T06:40:07.553Z,5.70
2022-09-30T06:42:34.930Z,5.74
2022-09-30T06:45:01.410Z,5.68
2022-09-30T06:47:27.879Z,5.62
2022-09-30T06:49:58.489Z,5.81
2022-09-30T06:52:26.339Z,5.68
2022-09-30T06:54:53.421Z,5.59
2022-09-30T06:57:22.512Z,5.65
2022-09-30T06:59:49.363Z,5.74
2022-09-30T07:02:15.785Z,5.71
2022-09-30T07:04:42.539Z,5.80
2022-09-30T07:07:08.916Z,5.80
2022-09-30T07:09:35.457Z,5.44
2022-09-30T07:12:02.092Z,5.41
2022-09-30T07:14:28.474Z,5.09
2022-09-30T07:16:54.935Z,5.42
2022-09-30T07:19:24.163Z,5.30
2022-09-30T07:21:50.618Z,5.43
2022-09-30T07:24:18.075Z,5.62
2022-09-30T07:26:47.052Z,5.41
2022-09-30T07:29:13.797Z,5.20
2022-09-30T07:31:40.959Z,5.10
2022-09-30T07:34:09.213Z,5.43
2022-09-30T07:36:38.435Z,5.56
2022-09-30T07:39:07.952Z,5.62
2022-09-30T07:41:37.517Z,5.69
2022-09-30T07:44:06.382Z,5.92
2022-09-30T07:46:35.383Z,5.80
2022-09-30T07:49:04.064Z,5.82
2022-09-30T07:51:43.716Z,5.85
2022-09-30T07:54:14.221Z,5.75
2022-09-30T07:57:08.216Z,5.91
2022-09-30T07:59:29.890Z,5.71
2022-09-30T08:01:56.517Z,5.86
2022-09-30T08:04:24.461Z,5.93
2022-09-30T08:06:53.899Z,6.09
2022-09-30T08:09:22.206Z,5.95
2022-09-30T08:11:49.314Z,5.82
2022-09-30T08:14:19.163Z,5.91
2022-09-30T08:16:45.574Z,6.00
2022-09-30T08:19:17.854Z,6.02
2022-09-30T08:21:45.801Z,5.75
2022-09-30T08:24:12.930Z,5.93
2022-09-30T08:26:40.095Z,6.16
2022-09-30T08:29:06.745Z,6.25
2022-09-30T08:31:33.799Z,6.12
2022-09-30T08:34:00.645Z,6.07
2022-09-30T08:36:27.882Z,6.07
2022-09-30T08:38:55.044Z,6.09
2022-09-30T08:41:49.296Z,6.11
2022-09-30T08:44:45.340Z,5.86
2022-09-30T08:47:40.042Z,6.01
2022-09-30T08:50:32.504Z,6.18
2022-09-30T08:53:03.728Z,6.08
2022-09-30T08:55:36.925Z,6.15
2022-09-30T08:58:05.310Z,6.23
2022-09-30T09:00:31.887Z,6.28
2022-09-30T09:03:00.357Z,6.32
2022-09-30T09:05:52.733Z,6.44
2022-09-30T09:08:31.546Z,6.50
2022-09-30T09:11:16.913Z,6.58
2022-09-30T09:14:06.580Z,6.62
2022-09-30T09:16:41.100Z,6.68
2022-09-30T09:19:22.941Z,6.76
2022-09-30T09:22:01.826Z,6.87
2022-09-30T09:24:41.630Z,6.88
2022-09-30T09:27:19.363Z,6.83
2022-09-30T09:30:20.882Z,6.80
2022-09-30T09:33:00.739Z,6.80
2022-09-30T09:35:36.052Z,6.94
2022-09-30T09:38:35.615Z,6.94
2022-09-30T09:41:08.709Z,6.99
2022-09-30T09:43:38.087Z,7.07
2022-09-30T09:46:26.431Z,7.17
2022-09-30T09:49:20.162Z,7.27
2022-09-30T09:52:15.695Z,7.36
2022-09-30T09:54:45.183Z,7.45
2022-09-30T09:57:15.278Z,7.52
2022-09-30T10:00:25.269Z,7.58
2022-09-30T10:03:13.054Z,7.59
2022-09-30T10:05:39.715Z,7.90
2022-09-30T10:08:12.316Z,8.31
2022-09-30T10:10:51.810Z,8.48
2022-09-30T10:13:20.905Z,8.72
2022-09-30T10:15:48.922Z,9.04
2022-09-30T10:18:50.946Z,9.41
2022-09-30T10:21:29.150Z,9.76
2022-09-30T10:23:57.594Z,9.97
2022-09-30T10:29:01.766Z,10.45
2022-09-30T10:31:34.969Z,10.62
2022-09-30T10:34:21.842Z,10.78
2022-09-30T10:36:49.023Z,10.98
2022-09-30T10:39:32.586Z,11.09
2022-09-30T10:42:07.287Z,11.22
2022-09-30T10:44:41.179Z,11.38
2022-09-30T10:47:07.731Z,11.55
2022-09-30T10:49:53.505Z,11.67
2022-09-30T10:52:28.856Z,11.76
2022-09-30T10:55:14.726Z,11.78
2022-09-30T10:57:43.249Z,11.98
2022-09-30T11:00:18.674Z,11.99
2022-09-30T11:02:55.252Z,11.98
2022-09-30T11:05:31.355Z,12.15
2022-09-30T11:08:25.536Z,12.15
2022-09-30T11:11:10.364Z,12.37
2022-09-30T11:13:56.938Z,12.50
2022-09-30T11:16:37.036Z,12.53
2022-09-30T11:19:12.502Z,12.72
2022-09-30T11:21:41.966Z,12.79
2022-09-30T11:24:11.508Z,12.90
2022-09-30T11:26:48.462Z,12.88
2022-09-30T11:29:25.259Z,13.06
2022-09-30T11:32:18.169Z,13.19
2022-09-30T11:35:08.798Z,13.31
2022-09-30T11:38:10.513Z,13.32
2022-09-30T11:41:04.254Z,13.38
2022-09-30T11:43:36.494Z,13.48
2022-09-30T11:46:29.643Z,13.61
2022-09-30T11:49:10.719Z,13.68
2022-09-30T11:52:04.814Z,13.73
2022-09-30T11:54:34.270Z,13.75
2022-09-30T11:57:03.670Z,13.81
2022-09-30T11:59:38.690Z,13.90
2022-09-30T12:02:18.866Z,13.62
2022-09-30T12:04:47.111Z,13.60
2022-09-30T12:07:22.474Z,13.72
2022-09-30T12:10:02.609Z,13.91
2022-09-30T12:12:29.166Z,13.97
2022-09-30T12:15:01.012Z,14.13
2022-09-30T12:17:47.033Z,14.12
2022-09-30T12:20:21.944Z,14.15
2022-09-30T12:22:51.913Z,14.23
2022-09-30T12:25:26.817Z,14.32
2022-09-30T12:28:26.119Z,14.34
2022-09-30T12:31:21.187Z,14.19
2022-09-30T12:33:58.999Z,13.82
2022-09-30T12:36:31.679Z,13.77
2022-09-30T12:39:23.054Z,13.98
2022-09-30T12:42:20.943Z,14.12
2022-09-30T12:44:59.481Z,14.20
2022-09-30T12:47:48.494Z,14.39
2022-09-30T12:50:18.515Z,14.45
2022-09-30T12:52:45.018Z,14.61
2022-09-30T12:55:38.438Z,14.88
2022-09-30T12:58:05.458Z,15.13
2022-09-30T13:00:36.021Z,14.91
2022-09-30T13:03:15.241Z,14.51
2022-09-30T13:05:46.729Z,14.09
2022-09-30T13:08:16.098Z,13.76
2022-09-30T13:10:48.158Z,13.50
2022-09-30T13:13:27.839Z,13.29
2022-09-30T13:16:03.552Z,13.08
2022-09-30T13:18:29.989Z,12.95
2022-09-30T13:20:57.471Z,12.87
2022-09-30T13:23:41.335Z,12.83
2022-09-30T13:26:23.253Z,12.85
2022-09-30T13:29:16.471Z,12.82
2022-09-30T13:31:45.702Z,12.80
2022-09-30T13:34:21.342Z,12.75
2022-09-30T13:36:50.721Z,12.70
2022-09-30T13:39:21.939Z,12.66
2022-09-30T13:41:58.426Z,12.64
2022-09-30T13:44:39.409Z,12.62
2022-09-30T13:47:16.957Z,12.59
2022-09-30T13:50:20.110Z,12.58
2022-09-30T13:52:53.698Z,12.56
2022-09-30T13:55:25.728Z,12.56
2022-09-30T13:58:27.753Z,12.61
2022-09-30T14:01:01.088Z,12.60
2022-09-30T14:03:44.683Z,12.62
2022-09-30T14:06:52.718Z,12.59
2022-09-30T14:09:34.640Z,12.56
2022-09-30T14:12:19.568Z,12.56
2022-09-30T14:15:07.877Z,12.54
2022-09-30T14:17:44.107Z,12.55
2022-09-30T14:20:31.987Z,12.60
2022-09-30T14:22:58.442Z,12.62
2022-09-30T14:25:25.005Z,12.59
2022-09-30T14:28:04.171Z,12.62
2022-09-30T14:30:38.919Z,12.58
2022-09-30T14:33:28.033Z,12.57
2022-09-30T14:35:54.598Z,12.50
2022-09-30T14:38:27.989Z,12.50
2022-09-30T14:40:58.335Z,12.48
2022-09-30T14:43:33.498Z,12.48
2022-09-30T14:46:07.098Z,12.47
2022-09-30T14:48:38.682Z,12.50
2022-09-30T14:51:14.038Z,12.51
2022-09-30T14:53:52.736Z,12.57
2022-09-30T14:56:27.201Z,12.59
2022-09-30T14:58:57.586Z,12.66
2022-09-30T15:01:25.766Z,12.66
2022-09-30T15:03:58.300Z,12.69
2022-09-30T15:06:29.834Z,12.65
2022-09-30T15:09:23.809Z,12.62
2022-09-30T15:11:50.582Z,12.58
2022-09-30T15:14:22.432Z,12.55
2022-09-30T15:16:58.616Z,12.52
2022-09-30T15:19:42.662Z,12.49
2022-09-30T15:22:12.364Z,12.47
2022-09-30T15:24:40.585Z,12.42
2022-09-30T15:27:30.418Z,12.48
2022-09-30T15:29:59.750Z,12.49
2022-09-30T15:32:29.611Z,12.50
2022-09-30T15:34:58.386Z,12.52
2022-09-30T15:37:29.777Z,12.52
2022-09-30T15:40:14.538Z,12.51
2022-09-30T15:43:06.274Z,12.52
2022-09-30T15:45:41.273Z,12.54
2022-09-30T15:48:32.964Z,12.52
2022-09-30T15:51:01.234Z,12.49
2022-09-30T15:53:46.123Z,12.47
2022-09-30T15:56:19.553Z,12.43
2022-09-30T15:58:59.593Z,12.41
2022-09-30T16:01:33.097Z,12.41
2022-09-30T16:04:05.479Z,12.38
2022-09-30T16:06:37.102Z,12.38
2022-09-30T16:09:08.309Z,12.33
2022-09-30T16:11:41.895Z,12.28
2022-09-30T16:14:17.457Z,12.25
2022-09-30T16:16:50.584Z,12.20
2022-09-30T16:19:18.803Z,12.17
2022-09-30T16:21:52.469Z,12.13
2022-09-30T16:24:27.176Z,12.05
2022-09-30T16:27:15.525Z,11.95
2022-09-30T16:29:41.877Z,11.87
2022-09-30T16:32:10.044Z,11.83
2022-09-30T16:34:37.911Z,11.77
2022-09-30T16:37:11.917Z,11.73
2022-09-30T16:39:38.614Z,11.62
2022-09-30T16:42:05.062Z,11.61
2022-09-30T16:44:35.385Z,11.54
2022-09-30T16:47:02.673Z,11.55
2022-09-30T16:49:29.183Z,11.50
2022-09-30T16:51:55.687Z,11.48
2022-09-30T16:54:22.056Z,11.40
2022-09-30T16:56:49.292Z,11.34
2022-09-30T16:59:17.299Z,11.26
2022-09-30T17:01:44.038Z,11.28
2022-09-30T17:04:14.070Z,11.24
2022-09-30T17:06:43.613Z,11.23
2022-09-30T17:09:09.973Z,11.13
2022-09-30T17:11:37.916Z,11.12
2022-09-30T17:14:05.498Z,11.09
2022-09-30T17:16:32.956Z,11.08
2022-09-30T17:19:00.120Z,11.01
2022-09-30T17:21:26.837Z,10.95
2022-09-30T17:23:54.830Z,10.86
2022-09-30T17:26:21.497Z,10.85
2022-09-30T17:28:47.955Z,10.74
2022-09-30T17:31:14.999Z,10.73
2022-09-30T17:33:41.524Z,10.68
2022-09-30T17:36:10.319Z,10.64
2022-09-30T17:38:38.043Z,10.62
2022-09-30T17:41:24.683Z,10.62
2022-09-30T17:43:51.082Z,10.56
2022-09-30T17:46:23.069Z,10.52
2022-09-30T17:48:51.089Z,10.35
2022-09-30T17:51:17.541Z,10.41
2022-09-30T17:53:44.768Z,10.45
2022-09-30T17:56:19.978Z,10.45
2022-09-30T17:58:48.883Z,10.36
2022-09-30T18:01:17.875Z,10.36
2022-09-30T18:03:45.667Z,10.37
2022-09-30T18:06:14.434Z,10.28
2022-09-30T18:08:41.045Z,10.24
2022-09-30T18:11:07.592Z,10.23
2022-09-30T18:13:34.044Z,10.28
2022-09-30T18:16:05.588Z,10.15
2022-09-30T18:18:34.162Z,10.11
2022-09-30T18:21:00.602Z,10.11
2022-09-30T18:23:26.985Z,10.17
2022-09-30T18:25:54.961Z,10.10
2022-09-30T18:28:21.429Z,10.10
2022-09-30T18:30:47.933Z,10.11
2022-09-30T18:33:17.224Z,10.03
2022-09-30T18:35:43.636Z,10.08
2022-09-30T18:38:12.643Z,10.09
2022-09-30T18:40:42.253Z,10.03
2022-09-30T18:43:12.856Z,10.07
2022-09-30T18:45:40.137Z,9.99
2022-09-30T18:48:07.430Z,9.99
2022-09-30T18:50:34.515Z,9.93
2022-09-30T18:53:09.442Z,9.91
2022-09-30T18:55:37.984Z,9.91
2022-09-30T18:58:04.489Z,9.93
2022-09-30T19:00:31.022Z,9.96
2022-09-30T19:02:57.520Z,9.95
2022-09-30T19:05:23.911Z,9.81
2022-09-30T19:07:52.524Z,9.82
2022-09-30T19:10:19.155Z,9.85
2022-09-30T19:12:45.620Z,9.71
2022-09-30T19:15:15.920Z,9.69
2022-09-30T19:17:43.574Z,9.68
2022-09-30T19:20:11.086Z,9.69
2022-09-30T19:22:37.828Z,9.68
2022-09-30T19:25:05.610Z,9.61
2022-09-30T19:27:33.132Z,9.72
2022-09-30T19:29:59.816Z,9.63
2022-09-30T19:32:29.320Z,9.67
2022-09-30T19:35:05.195Z,9.73
2022-09-30T19:37:32.658Z,9.72
2022-09-30T19:40:04.382Z,9.63
2022-09-30T19:42:39.407Z,9.59
2022-09-30T19:45:06.937Z,9.55
2022-09-30T19:47:34.433Z,9.40
2022-09-30T19:50:01.017Z,9.46
2022-09-30T19:52:27.819Z,9.55
2022-09-30T19:55:07.873Z,9.55
2022-09-30T19:57:37.537Z,9.56
2022-09-30T20:00:05.483Z,9.45
2022-09-30T20:02:35.818Z,9.39
2022-09-30T20:05:03.817Z,9.53
2022-09-30T20:07:30.186Z,9.45
2022-09-30T20:09:56.723Z,9.45
2022-09-30T20:12:23.536Z,9.46
2022-09-30T20:15:18.867Z,9.48
2022-09-30T20:17:45.325Z,9.43
2022-09-30T20:20:30.518Z,9.33
2022-09-30T20:23:00.156Z,9.19
2022-09-30T20:25:26.594Z,9.25
2022-09-30T20:27:53.066Z,9.29
2022-09-30T20:30:20.161Z,9.20
2022-09-30T20:32:46.643Z,9.20
2022-09-30T20:35:13.740Z,9.11
2022-09-30T20:37:40.839Z,9.18
2022-09-30T20:40:09.206Z,9.11
2022-09-30T20:42:37.771Z,9.23
2022-09-30T20:45:10.633Z,9.22
2022-09-30T20:47:38.077Z,9.14
2022-09-30T20:50:05.472Z,9.11
2022-09-30T20:52:32.005Z,9.17
2022-09-30T20:54:59.803Z,9.20
2022-09-30T20:57:30.070Z,9.12
2022-09-30T20:59:57.405Z,9.09
2022-09-30T21:02:27.858Z,8.96
2022-09-30T21:04:55.382Z,9.05
2022-09-30T21:07:21.742Z,9.04
2022-09-30T21:09:48.173Z,9.01
2022-09-30T21:12:16.761Z,8.82
2022-09-30T21:14:43.364Z,8.91
2022-09-30T21:17:10.114Z,8.92
2022-09-30T21:19:36.480Z,8.73
2022-09-30T21:22:02.846Z,8.83
2022-09-30T21:24:29.294Z,8.87
2022-09-30T21:26:55.813Z,8.94
2022-09-30T21:29:23.673Z,8.93
2022-09-30T21:31:50.115Z,8.86
2022-09-30T21:34:16.602Z,8.86
2022-09-30T21:36:43.037Z,8.84
2022-09-30T21:39:11.014Z,8.82
2022-09-30T21:41:37.824Z,8.76
2022-09-30T21:44:04.267Z,8.71
2022-09-30T21:46:30.706Z,8.64
2022-09-30T21:49:06.608Z,8.73
2022-09-30T21:51:35.319Z,8.65
2022-09-30T21:54:02.771Z,8.72
2022-09-30T21:56:29.284Z,8.70
2022-09-30T21:58:56.053Z,8.71
2022-09-30T22:01:22.668Z,8.74
2022-09-30T22:03:49.134Z,8.66
2022-09-30T22:06:18.698Z,8.56
2022-09-30T22:08:45.131Z,8.64
2022-09-30T22:11:17.347Z,8.72
2022-09-30T22:13:45.416Z,8.61
2022-09-30T22:16:15.191Z,8.71
2022-09-30T22:18:43.019Z,8.56
2022-09-30T22:21:12.741Z,8.55
2022-09-30T22:23:39.598Z,8.57
2022-09-30T22:26:10.343Z,8.61
2022-09-30T22:28:37.861Z,8.62
2022-09-30T22:31:19.358Z,8.63
2022-09-30T22:34:06.186Z,8.58
2022-09-30T22:36:50.913Z,8.70
2022-09-30T22:39:18.118Z,8.64
2022-09-30T22:41:44.921Z,8.65
2022-09-30T22:44:11.386Z,8.62
2022-09-30T22:46:39.358Z,8.66
2022-09-30T22:49:06.246Z,8.61
2022-09-30T22:51:33.014Z,8.65
2022-09-30T22:54:01.152Z,8.62
2022-09-30T22:56:27.601Z,8.53
2022-09-30T22:58:53.984Z,8.49
2022-09-30T23:01:20.437Z,8.53
2022-09-30T23:03:46.916Z,8.55
2022-09-30T23:06:13.337Z,8.55
2022-09-30T23:08:42.912Z,8.55
2022-09-30T23:11:10.590Z,8.53
2022-09-30T23:13:38.211Z,8.51
2022-09-30T23:16:06.827Z,8.47
2022-09-30T23:18:34.431Z,8.47
2022-09-30T23:21:09.691Z,8.49
2022-09-30T23:23:37.678Z,8.42
2022-09-30T23:26:17.641Z,8.33
2022-09-30T23:28:44.801Z,8.38
2022-09-30T23:31:16.511Z,8.43
2022-09-30T23:33:51.493Z,8.46
2022-09-30T23:36:20.693Z,8.45
2022-09-30T23:38:47.255Z,8.37
2022-09-30T23:41:14.244Z,8.43
2022-09-30T23:43:45.679Z,8.35
2022-09-30T23:46:12.394Z,8.32
2022-09-30T23:48:38.998Z,8.39
2022-09-30T23:51:06.019Z,8.50
2022-09-30T23:53:33.676Z,8.48
2022-09-30T23:56:06.682Z,8.51
2022-09-30T23:58:34.408Z,8.58
